createdAt,value
2018-07-13T00:00:56.025Z,100763.64
2018-07-13T00:03:26.868Z,100763.43
2018-07-13T00:05:55.446Z,100760.85
2018-07-13T00:08:24.467Z,100758.66
2018-07-13T00:10:56.501Z,100758.12
2018-07-13T00:13:25.390Z,100754.75
2018-07-13T00:16:03.297Z,100755.87
2018-07-13T00:18:32.803Z,100762.84
2018-07-13T00:21:01.421Z,100760.73
2018-07-13T00:23:32.249Z,100763.41
2018-07-13T00:26:00.811Z,100768.16
2018-07-13T00:28:33.097Z,100768.43
2018-07-13T00:31:02.139Z,100769.70
2018-07-13T00:33:30.798Z,100771.19
2018-07-13T00:35:59.368Z,100771.47
2018-07-13T00:38:28.316Z,100772.06
2018-07-13T00:40:56.808Z,100773.80
2018-07-13T00:43:25.369Z,100770.88
2018-07-13T00:45:54.151Z,100771.86
2018-07-13T00:48:22.711Z,100772.49
2018-07-13T00:50:51.297Z,100769.97
2018-07-13T00:53:20.231Z,100770.12
2018-07-13T00:55:49.027Z,100765.52
2018-07-13T00:58:17.588Z,100774.70
2018-07-13T01:00:46.572Z,100774.63
2018-07-13T01:03:15.133Z,100777.09
2018-07-13T01:05:45.085Z,100779.55
2018-07-13T01:08:14.071Z,100773.02
2018-07-13T01:10:42.707Z,100774.13
2018-07-13T01:13:11.236Z,100770.39
2018-07-13T01:15:40.074Z,100768.02
2018-07-13T01:18:08.674Z,100774.96
2018-07-13T01:20:37.204Z,100774.78
2018-07-13T01:23:12.755Z,100777.93
2018-07-13T01:25:41.269Z,100779.53
2018-07-13T01:28:09.905Z,100783.13
2018-07-13T01:30:38.442Z,100784.59
2018-07-13T01:33:07.135Z,100781.09
2018-07-13T01:35:36.162Z,100786.48
2018-07-13T01:38:05.517Z,100787.11
2018-07-13T01:40:34.152Z,100788.45
2018-07-13T01:43:03.130Z,100784.92
2018-07-13T01:45:31.721Z,100793.45
2018-07-13T01:48:00.310Z,100791.52
2018-07-13T01:50:29.339Z,100794.97
2018-07-13T01:52:57.988Z,100791.97
2018-07-13T01:55:26.575Z,100793.64
2018-07-13T01:58:01.504Z,100793.70
2018-07-13T02:00:30.117Z,100802.20
2018-07-13T02:02:58.671Z,100789.97
2018-07-13T02:05:27.668Z,100791.44
2018-07-13T02:08:03.311Z,100792.52
2018-07-13T02:10:33.224Z,100797.53
2018-07-13T02:13:02.886Z,100797.64
2018-07-13T02:15:31.461Z,100796.59
2018-07-13T02:18:00.104Z,100798.33
2018-07-13T02:20:28.792Z,100796.77
2018-07-13T02:22:57.443Z,100803.45
2018-07-13T02:25:26.011Z,100804.45
2018-07-13T02:27:54.603Z,100805.56
2018-07-13T02:30:29.844Z,100802.03
2018-07-13T02:32:58.399Z,100802.52
2018-07-13T02:35:27.460Z,100799.98
2018-07-13T02:37:56.092Z,100810.92
2018-07-13T02:40:24.721Z,100809.17
2018-07-13T02:42:53.250Z,100815.98
2018-07-13T02:45:21.972Z,100816.24
2018-07-13T02:47:51.891Z,100820.39
2018-07-13T02:50:20.540Z,100817.83
2018-07-13T02:52:59.655Z,100816.30
2018-07-13T02:55:28.260Z,100823.22
2018-07-13T02:57:58.350Z,100825.66
2018-07-13T03:00:27.546Z,100820.13
2018-07-13T03:03:00.968Z,100820.38
2018-07-13T03:05:29.565Z,100821.97
2018-07-13T03:07:58.953Z,100821.15
2018-07-13T03:10:27.499Z,100822.59
2018-07-13T03:12:56.121Z,100824.92
2018-07-13T03:15:25.116Z,100825.88
2018-07-13T03:17:53.689Z,100828.69
2018-07-13T03:20:22.375Z,100826.02
2018-07-13T03:22:51.658Z,100831.98
2018-07-13T03:25:20.299Z,100832.12
2018-07-13T03:27:48.862Z,100834.70
2018-07-13T03:30:17.408Z,100840.03
2018-07-13T03:32:46.944Z,100842.81
2018-07-13T03:35:15.513Z,100842.81
2018-07-13T03:37:44.456Z,100842.61
2018-07-13T03:40:13.029Z,100838.95
2018-07-13T03:42:41.670Z,100841.98
2018-07-13T03:45:10.331Z,100840.77
2018-07-13T03:47:38.911Z,100840.05
2018-07-13T03:50:08.026Z,100849.39
2018-07-13T03:52:36.596Z,100849.77
2018-07-13T03:55:05.934Z,100846.47
2018-07-13T03:57:42.783Z,100849.00
2018-07-13T04:00:16.398Z,100847.19
2018-07-13T04:02:45.499Z,100841.71
2018-07-13T04:05:14.073Z,100846.56
2018-07-13T04:07:46.496Z,100845.38
2018-07-13T04:10:15.388Z,100849.48
2018-07-13T04:12:44.023Z,100847.33
2018-07-13T04:15:12.593Z,100843.67
2018-07-13T04:17:41.646Z,100842.70
2018-07-13T04:20:10.292Z,100841.94
2018-07-13T04:22:43.453Z,100845.70
2018-07-13T04:25:12.723Z,100844.22
2018-07-13T04:27:41.607Z,100848.84
2018-07-13T04:30:10.249Z,100845.33
2018-07-13T04:35:14.527Z,100848.84
2018-07-13T04:37:47.833Z,100845.80
2018-07-13T04:40:16.662Z,100844.22
2018-07-13T04:42:45.199Z,100842.03
2018-07-13T04:45:13.776Z,100844.80
2018-07-13T04:47:43.904Z,100842.98
2018-07-13T04:50:12.521Z,100848.77
2018-07-13T04:52:41.385Z,100847.64
2018-07-13T04:55:10.099Z,100842.67
2018-07-13T04:57:38.669Z,100846.99
2018-07-13T05:00:08.283Z,100842.05
2018-07-13T05:02:37.199Z,100842.56
2018-07-13T05:05:06.647Z,100847.25
2018-07-13T05:07:38.304Z,100842.22
2018-07-13T05:10:07.098Z,100845.94
2018-07-13T05:12:36.847Z,100840.85
2018-07-13T05:15:06.204Z,100849.43
2018-07-13T05:17:38.580Z,100849.88
2018-07-13T05:20:07.675Z,100847.99
2018-07-13T05:22:36.483Z,100847.59
2018-07-13T05:25:05.984Z,100848.52
2018-07-13T05:27:36.032Z,100847.97
2018-07-13T05:30:13.259Z,100845.37
2018-07-13T05:32:42.024Z,100849.08
2018-07-13T05:35:16.622Z,100851.83
2018-07-13T05:37:45.389Z,100857.84
2018-07-13T05:46:57.652Z,100861.88
2018-07-13T05:49:26.639Z,100859.39
2018-07-13T05:51:55.551Z,100865.98
2018-07-13T05:54:24.274Z,100862.31
2018-07-13T05:56:54.284Z,100867.86
2018-07-13T05:59:22.987Z,100872.38
2018-07-13T06:01:51.555Z,100874.05
2018-07-13T06:04:21.580Z,100872.35
2018-07-13T06:06:51.219Z,100872.47
2018-07-13T06:09:19.724Z,100875.02
2018-07-13T06:11:48.687Z,100874.28
2018-07-13T06:14:17.202Z,100871.51
2018-07-13T06:16:45.718Z,100875.30
2018-07-13T06:19:14.219Z,100878.30
2018-07-13T06:21:43.078Z,100871.42
2018-07-13T06:24:12.139Z,100875.83
2018-07-13T06:29:24.085Z,100880.03
2018-07-13T06:31:52.663Z,100874.83
2018-07-13T06:34:21.213Z,100877.40
2018-07-13T06:36:50.547Z,100871.77
2018-07-13T06:39:19.258Z,100870.63
2018-07-13T06:41:47.939Z,100872.86
2018-07-13T06:44:16.862Z,100881.15
2018-07-13T06:46:47.236Z,100876.84
2018-07-13T06:49:16.783Z,100881.19
2018-07-13T06:51:45.385Z,100881.07
2018-07-13T06:54:17.791Z,100877.78
2018-07-13T06:56:46.720Z,100879.88
2018-07-13T06:59:16.579Z,100881.13
2018-07-13T07:01:45.984Z,100878.03
2018-07-13T07:04:31.463Z,100879.44
2018-07-13T07:07:16.312Z,100882.91
2018-07-13T07:09:51.750Z,100880.13
2018-07-13T07:13:28.166Z,100876.53
2018-07-13T07:15:56.712Z,100882.48
2018-07-13T07:18:25.884Z,100883.00
2018-07-13T07:20:55.076Z,100882.22
2018-07-13T07:25:58.676Z,100887.81
2018-07-13T07:28:27.296Z,100887.51
2018-07-13T07:30:56.628Z,100891.89
2018-07-13T07:33:25.596Z,100888.33
2018-07-13T07:35:54.084Z,100893.23
2018-07-13T07:38:22.617Z,100891.56
2018-07-13T07:40:51.655Z,100891.59
2018-07-13T07:43:20.985Z,100897.34
2018-07-13T07:45:50.168Z,100889.80
2018-07-13T07:48:18.935Z,100886.88
2018-07-13T07:50:47.424Z,100885.72
2018-07-13T07:53:15.919Z,100886.05
2018-07-13T07:55:44.479Z,100879.88
2018-07-13T07:58:13.024Z,100880.42
2018-07-13T08:00:41.997Z,100874.07
2018-07-13T08:03:10.606Z,100870.12
2018-07-13T08:05:45.714Z,100865.78
2018-07-13T08:08:14.216Z,100872.33
2018-07-13T08:10:45.757Z,100871.88
2018-07-13T08:13:14.562Z,100866.17
2018-07-13T08:18:22.749Z,100873.70
2018-07-13T08:20:51.571Z,100870.33
2018-07-13T08:23:21.713Z,100867.51
2018-07-13T08:25:51.357Z,100863.19
2018-07-13T08:28:20.698Z,100873.28
2018-07-13T08:30:55.841Z,100871.63
2018-07-13T08:33:24.763Z,100867.07
2018-07-13T08:35:53.316Z,100873.95
2018-07-13T08:38:21.979Z,100870.30
2018-07-13T08:40:50.981Z,100870.11
2018-07-13T08:43:19.584Z,100869.11
2018-07-13T08:45:48.322Z,100865.27
2018-07-13T08:48:22.584Z,100865.14
2018-07-13T08:50:51.472Z,100868.80
2018-07-13T08:53:20.009Z,100866.42
2018-07-13T08:55:52.340Z,100862.58
2018-07-13T08:58:20.980Z,100863.80
2018-07-13T09:00:54.601Z,100865.16
2018-07-13T09:03:23.468Z,100865.31
2018-07-13T09:05:52.096Z,100866.70
2018-07-13T09:08:20.660Z,100865.75
2018-07-13T09:10:49.660Z,100866.11
2018-07-13T09:13:18.756Z,100865.81
2018-07-13T09:15:52.116Z,100864.13
2018-07-13T09:18:20.837Z,100861.12
2018-07-13T09:20:49.417Z,100861.80
2018-07-13T09:23:18.044Z,100867.36
2018-07-13T09:25:46.898Z,100867.54
2018-07-13T09:28:15.432Z,100872.78
2018-07-13T09:30:44.176Z,100863.53
2018-07-13T09:33:12.760Z,100860.84
2018-07-13T09:35:41.323Z,100856.30
2018-07-13T09:38:11.273Z,100855.10
2018-07-13T09:40:39.832Z,100860.34
2018-07-13T09:43:08.451Z,100855.44
2018-07-13T09:45:37.546Z,100849.06
2018-07-13T09:48:06.095Z,100851.55
2018-07-13T09:50:34.669Z,100854.22
2018-07-13T09:53:03.576Z,100851.19
2018-07-13T09:55:32.243Z,100856.24
2018-07-13T09:58:05.344Z,100856.53
2018-07-13T10:00:42.135Z,100853.77
2018-07-13T10:03:10.596Z,100845.81
2018-07-13T10:05:44.108Z,100847.78
2018-07-13T10:08:12.715Z,100844.75
2018-07-13T10:10:41.400Z,100849.84
2018-07-13T10:13:10.244Z,100846.77
2018-07-13T10:15:38.791Z,100840.56
2018-07-13T10:18:12.173Z,100850.02
2018-07-13T10:20:40.987Z,100855.01
2018-07-13T10:23:16.499Z,100849.34
2018-07-13T10:25:50.803Z,100845.76
2018-07-13T10:28:19.680Z,100842.67
2018-07-13T10:30:49.292Z,100843.09
2018-07-13T10:33:19.470Z,100839.67
2018-07-13T10:35:49.595Z,100840.28
2018-07-13T10:38:18.537Z,100842.99
2018-07-13T10:40:57.897Z,100844.48
2018-07-13T10:43:27.138Z,100831.53
2018-07-13T10:45:55.842Z,100829.33
2018-07-13T10:48:24.519Z,100834.70
2018-07-13T10:50:53.356Z,100829.92
2018-07-13T10:53:21.943Z,100821.94
2018-07-13T10:55:50.606Z,100823.92
2018-07-13T10:58:22.465Z,100815.79
2018-07-13T11:00:52.507Z,100822.42
2018-07-13T11:03:24.056Z,100812.31
2018-07-13T11:05:53.273Z,100815.66
2018-07-13T11:08:23.828Z,100805.53
2018-07-13T11:10:52.472Z,100806.00
2018-07-13T11:13:25.095Z,100808.11
2018-07-13T11:15:53.745Z,100809.98
2018-07-13T11:18:24.535Z,100810.78
2018-07-13T11:20:53.143Z,100802.08
2018-07-13T11:23:21.783Z,100800.95
2018-07-13T11:25:52.748Z,100797.84
2018-07-13T11:28:21.365Z,100788.45
2018-07-13T11:30:53.641Z,100797.38
2018-07-13T11:33:22.131Z,100796.48
2018-07-13T11:35:50.941Z,100795.77
2018-07-13T11:38:20.956Z,100792.08
2018-07-13T11:40:52.831Z,100783.23
2018-07-13T11:43:21.347Z,100780.45
2018-07-13T11:45:55.137Z,100778.88
2018-07-13T11:48:23.664Z,100779.69
2018-07-13T11:50:52.512Z,100778.30
2018-07-13T11:53:25.154Z,100776.00
2018-07-13T11:55:53.716Z,100773.81
2018-07-13T11:58:22.376Z,100776.09
2018-07-13T12:00:52.394Z,100774.13
2018-07-13T12:03:20.976Z,100769.91
2018-07-13T12:05:49.662Z,100771.66
2018-07-13T12:08:18.618Z,100762.88
2018-07-13T12:13:25.464Z,100759.14
2018-07-13T12:15:58.406Z,100749.78
2018-07-13T12:18:27.141Z,100751.80
2018-07-13T12:20:55.801Z,100751.33
2018-07-13T12:23:24.618Z,100742.45
2018-07-13T12:25:53.194Z,100745.98
2018-07-13T12:28:22.502Z,100738.20
2018-07-13T12:30:51.385Z,100743.39
2018-07-13T12:33:20.007Z,100734.34
2018-07-13T12:35:50.172Z,100734.60
2018-07-13T12:38:19.465Z,100728.22
2018-07-13T12:40:48.070Z,100731.83
2018-07-13T12:43:16.746Z,100723.72
2018-07-13T12:45:45.954Z,100718.73
2018-07-13T12:48:15.676Z,100709.62
2018-07-13T12:50:45.232Z,100713.28
2018-07-13T12:53:18.445Z,100719.31
2018-07-13T12:55:47.244Z,100710.53
2018-07-13T12:58:15.961Z,100716.41
2018-07-13T13:00:45.049Z,100715.56
2018-07-13T13:03:19.016Z,100715.90
2018-07-13T13:05:47.591Z,100719.78
2018-07-13T13:08:17.304Z,100713.82
2018-07-13T13:10:46.292Z,100719.38
2018-07-13T13:13:16.751Z,100715.92
2018-07-13T13:15:45.321Z,100712.20
2018-07-13T13:18:14.486Z,100709.88
2018-07-13T13:20:44.185Z,100708.47
2018-07-13T13:23:13.713Z,100706.14
2018-07-13T13:25:44.736Z,100704.78
2018-07-13T13:28:13.320Z,100695.89
2018-07-13T13:30:42.095Z,100703.25
2018-07-13T13:33:10.741Z,100700.14
2018-07-13T13:35:39.503Z,100705.46
2018-07-13T13:38:08.689Z,100701.01
2018-07-13T13:40:37.265Z,100696.88
2018-07-13T13:43:06.098Z,100697.73
2018-07-13T13:45:34.701Z,100706.00
2018-07-13T13:48:04.066Z,100702.42
2018-07-13T13:50:40.225Z,100702.16
2018-07-13T13:53:09.131Z,100700.19
2018-07-13T13:55:37.686Z,100697.09
2018-07-13T13:58:06.265Z,100699.18
2018-07-13T14:00:34.776Z,100701.02
2018-07-13T14:03:04.888Z,100693.58
2018-07-13T14:05:39.010Z,100688.07
2018-07-13T14:08:07.633Z,100689.50
2018-07-13T14:10:39.893Z,100690.12
2018-07-13T14:13:08.468Z,100684.02
2018-07-13T14:15:37.307Z,100686.10
2018-07-13T14:18:06.285Z,100688.86
2018-07-13T14:20:34.846Z,100684.80
2018-07-13T14:23:03.981Z,100684.00
2018-07-13T14:25:32.535Z,100686.17
2018-07-13T14:28:01.165Z,100692.78
2018-07-13T14:30:30.067Z,100691.84
2018-07-13T14:32:58.771Z,100685.82
2018-07-13T14:35:34.673Z,100681.88
2018-07-13T14:38:04.419Z,100675.49
2018-07-13T14:40:35.049Z,100673.77
2018-07-13T14:43:03.920Z,100678.95
2018-07-13T14:45:44.150Z,100675.64
2018-07-13T14:48:12.815Z,100665.43
2018-07-13T14:50:42.184Z,100665.38
2018-07-13T14:53:10.812Z,100669.12
2018-07-13T14:55:40.926Z,100663.05
2018-07-13T14:58:09.677Z,100655.40
2018-07-13T15:00:38.336Z,100656.94
2018-07-13T15:03:07.180Z,100660.89
2018-07-13T15:05:37.890Z,100661.06
2018-07-13T15:08:06.598Z,100655.98
2018-07-13T15:10:36.522Z,100658.80
2018-07-13T15:13:05.207Z,100662.89
2018-07-13T15:15:34.442Z,100658.47
2018-07-13T15:18:04.971Z,100659.17
2018-07-13T15:20:33.587Z,100657.58
2018-07-13T15:23:02.774Z,100655.61
2018-07-13T15:28:10.874Z,100646.11
2018-07-13T15:30:39.484Z,100645.85
2018-07-13T15:33:08.000Z,100646.27
2018-07-13T15:35:37.066Z,100642.92
2018-07-13T15:38:06.168Z,100641.41
2018-07-13T15:40:34.792Z,100638.20
2018-07-13T15:43:09.485Z,100647.06
2018-07-13T15:45:38.067Z,100647.17
2018-07-13T15:48:06.753Z,100635.42
2018-07-13T15:50:35.916Z,100636.50
2018-07-13T15:53:09.100Z,100636.84
2018-07-13T15:55:43.240Z,100640.02
2018-07-13T15:58:11.926Z,100631.25
2018-07-13T16:00:40.696Z,100629.02
2018-07-13T16:03:09.746Z,100628.08
2018-07-13T16:05:38.431Z,100621.45
2018-07-13T16:08:07.438Z,100629.34
2018-07-13T16:10:36.381Z,100622.48
2018-07-13T16:13:05.042Z,100620.35
2018-07-13T16:15:34.125Z,100622.20
2018-07-13T16:18:03.040Z,100621.70
2018-07-13T16:20:34.902Z,100620.78
2018-07-13T16:23:03.888Z,100619.19
2018-07-13T16:25:32.407Z,100619.61
2018-07-13T16:28:01.600Z,100620.91
2018-07-13T16:30:30.135Z,100611.87
2018-07-13T16:32:58.635Z,100604.45
2018-07-13T16:35:27.205Z,100604.81
2018-07-13T16:37:55.858Z,100605.66
2018-07-13T16:40:31.499Z,100607.03
2018-07-13T16:43:00.040Z,100607.77
2018-07-13T16:45:28.639Z,100605.34
2018-07-13T16:47:57.260Z,100609.11
2018-07-13T16:50:25.874Z,100608.20
2018-07-13T16:52:54.431Z,100608.92
2018-07-13T16:55:23.350Z,100609.83
2018-07-13T16:57:54.198Z,100612.24
2018-07-13T17:00:22.775Z,100610.34
2018-07-13T17:02:51.305Z,100606.13
2018-07-13T17:05:19.868Z,100606.70
2018-07-13T17:07:48.709Z,100605.03
2018-07-13T17:10:17.316Z,100605.55
2018-07-13T17:15:25.379Z,100603.98
2018-07-13T17:17:53.917Z,100604.73
2018-07-13T17:20:22.612Z,100604.98
2018-07-13T17:22:51.464Z,100607.14
2018-07-13T17:25:20.042Z,100606.99
2018-07-13T17:27:49.053Z,100597.89
2018-07-13T17:30:17.763Z,100591.52
2018-07-13T17:32:46.232Z,100596.54
2018-07-13T17:35:14.885Z,100602.20
2018-07-13T17:37:43.257Z,100604.33
2018-07-13T17:40:12.316Z,100607.45
2018-07-13T17:42:40.988Z,100608.19
2018-07-13T17:45:09.584Z,100602.20
2018-07-13T17:47:38.510Z,100610.44
2018-07-13T17:50:08.395Z,100608.45
2018-07-13T17:52:36.964Z,100608.19
2018-07-13T17:55:06.108Z,100614.64
2018-07-13T17:57:34.732Z,100615.27
2018-07-13T18:00:04.575Z,100617.04
2018-07-13T18:02:33.400Z,100617.39
2018-07-13T18:05:02.446Z,100612.22
2018-07-13T18:07:31.025Z,100615.72
2018-07-13T18:10:00.058Z,100621.84
2018-07-13T18:12:28.724Z,100621.70
2018-07-13T18:14:57.368Z,100619.16
2018-07-13T18:17:26.458Z,100630.77
2018-07-13T18:19:55.010Z,100633.23
2018-07-13T18:22:28.796Z,100636.59
2018-07-13T18:24:57.751Z,100642.03
2018-07-13T18:27:26.255Z,100639.84
2018-07-13T18:29:54.876Z,100634.30
2018-07-13T18:34:52.818Z,100639.41
2018-07-13T18:43:06.877Z,100651.19
2018-07-13T18:48:38.539Z,100649.44
2018-07-13T18:51:07.609Z,100654.36
2018-07-13T18:53:36.922Z,100651.10
2018-07-13T18:58:38.786Z,100657.30
2018-07-13T19:01:10.893Z,100653.47
2018-07-13T19:03:39.415Z,100657.52
2018-07-13T19:06:08.011Z,100655.03
2018-07-13T19:08:36.908Z,100654.97
2018-07-13T19:11:07.168Z,100662.58
2018-07-13T19:13:35.727Z,100665.28
2018-07-13T19:18:40.747Z,100667.03
2018-07-13T19:21:09.986Z,100668.00
2018-07-13T19:23:42.435Z,100671.78
2018-07-13T19:26:11.024Z,100676.47
2018-07-13T19:28:39.945Z,100670.47
2018-07-13T19:31:08.568Z,100675.14
2018-07-13T19:33:37.170Z,100678.41
2018-07-13T19:36:06.406Z,100685.92
2018-07-13T19:38:37.494Z,100691.58
2018-07-13T19:41:06.380Z,100692.14
2018-07-13T19:43:35.304Z,100697.25
2018-07-13T19:46:04.493Z,100703.57
2018-07-13T19:48:33.628Z,100703.12
2018-07-13T19:51:02.961Z,100704.66
2018-07-13T19:53:31.886Z,100704.87
2018-07-13T19:56:00.681Z,100706.61
2018-07-13T20:27:16.994Z,100735.24
2018-07-13T20:29:45.508Z,100740.98
2018-07-13T20:32:14.092Z,100742.34
2018-07-13T20:34:43.429Z,100742.34
2018-07-13T20:37:12.170Z,100740.17
2018-07-13T20:39:40.871Z,100747.08
2018-07-13T20:45:14.736Z,100747.11
2018-07-13T20:47:43.463Z,100741.09
2018-07-13T20:50:18.167Z,100745.67
2018-07-13T20:52:47.397Z,100748.72
2018-07-13T20:55:21.336Z,100744.52
2018-07-13T20:57:50.384Z,100747.91
2018-07-13T21:00:19.286Z,100742.70
2018-07-13T21:02:54.546Z,100742.54
2018-07-13T21:05:24.026Z,100746.80
2018-07-13T21:07:53.376Z,100744.48
2018-07-13T21:10:22.051Z,100746.86
2018-07-13T21:12:50.988Z,100746.17
2018-07-13T21:15:20.685Z,100749.02
2018-07-13T21:17:53.377Z,100750.05
2018-07-13T21:20:22.485Z,100756.64
2018-07-13T21:22:51.344Z,100750.95
2018-07-13T21:25:20.420Z,100752.70
2018-07-13T21:27:49.435Z,100750.16
2018-07-13T21:30:19.000Z,100754.73
2018-07-13T21:32:49.060Z,100759.59
2018-07-13T21:35:17.751Z,100764.66
2018-07-13T21:37:46.561Z,100758.27
2018-07-13T21:40:16.185Z,100760.64
2018-07-13T21:42:51.359Z,100759.32
2018-07-13T21:45:21.001Z,100768.78
2018-07-13T21:47:56.243Z,100769.11
2018-07-13T21:50:25.275Z,100768.13
2018-07-13T21:52:57.517Z,100771.16
2018-07-13T21:58:00.531Z,100765.30
2018-07-13T22:00:30.050Z,100760.92
2018-07-13T22:02:59.356Z,100768.70
2018-07-13T22:05:32.143Z,100768.34
2018-07-13T22:08:01.019Z,100768.86
2018-07-13T22:10:31.164Z,100761.28
2018-07-13T22:13:00.465Z,100766.02
2018-07-13T22:15:29.109Z,100761.51
2018-07-13T22:18:04.717Z,100762.70
2018-07-13T22:20:33.632Z,100766.27
2018-07-13T22:23:03.038Z,100764.76
2018-07-13T22:25:31.778Z,100771.14
2018-07-13T22:28:03.396Z,100763.25
2018-07-13T22:30:33.376Z,100768.64
2018-07-13T22:33:01.996Z,100764.90
2018-07-13T22:35:34.400Z,100768.94
2018-07-13T22:38:03.905Z,100760.02
2018-07-13T22:40:32.529Z,100758.36
2018-07-13T22:43:01.539Z,100765.41
2018-07-13T22:45:30.402Z,100756.84
2018-07-13T22:47:59.336Z,100760.05
2018-07-13T22:50:29.410Z,100763.90
2018-07-13T22:52:59.264Z,100767.62
2018-07-13T22:55:27.903Z,100770.62
2018-07-13T22:58:00.353Z,100766.59
2018-07-13T23:00:28.929Z,100762.06
2018-07-13T23:02:57.616Z,100764.58
2018-07-13T23:05:26.651Z,100768.78
2018-07-13T23:07:55.531Z,100768.25
2018-07-13T23:10:28.827Z,100763.37
2018-07-13T23:12:57.823Z,100763.22
2018-07-13T23:15:26.432Z,100761.34
2018-07-13T23:17:54.986Z,100763.50
2018-07-13T23:20:25.053Z,100764.34
2018-07-13T23:22:53.900Z,100762.33
2018-07-13T23:25:22.480Z,100762.64
2018-07-13T23:27:51.419Z,100766.50
2018-07-13T23:30:24.979Z,100764.47
2018-07-13T23:32:53.730Z,100766.30
2018-07-13T23:35:22.853Z,100767.32
2018-07-13T23:37:52.648Z,100765.12
2018-07-13T23:40:21.395Z,100767.80
2018-07-13T23:42:57.570Z,100771.15
2018-07-13T23:45:26.245Z,100772.66
2018-07-13T23:47:54.916Z,100772.47
2018-07-13T23:50:24.221Z,100762.70
2018-07-13T23:52:52.763Z,100761.02
2018-07-13T23:55:25.037Z,100758.81
2018-07-13T23:57:54.643Z,100753.92
